Observations for JERSEY AIRPORT, United Kingdom (EGJJ)

EGJJ 221320Z 27014KT 9999 VCSH FEW010 FEW015CB SCT038 07/03 Q1003   
EGJJ 221250Z 27014KT 9999 7000NE -SHRA FEW010 FEW015CB SCT028 07/03 Q1004   
EGJJ 221220Z 28013KT 9999 VCSH FEW015CB SCT035 08/02 Q1004  
EGJJ 221150Z 28012KT 9999 FEW020CB SCT032 08/02 Q1005   
EGJJ 221120Z 29013KT 9999 FEW020CB FEW030 08/02 Q1006   
EGJJ 221050Z 29013KT 9999 FEW015CB FEW031 08/02 Q1006   
EGJJ 221020Z 29015KT 9999 FEW015CB SCT032 08/02 Q1006   
EGJJ 220950Z 30012KT 9999 VCSH FEW029 SCT033 07/01 Q1006
EGJJ 220920Z 29013KT 9999 VCSH FEW027 SCT031 07/02 Q1006
EGJJ 220850Z 30011KT 270V330 9999 -SHRA FEW027 SCT030 07/02 Q1006   
EGJJ 220820Z 31009KT 9999 VCSH FEW026 SCT030 06/03 Q1006
EGJJ 220750Z 31010KT 9999 VCSH FEW026 07/02 Q1007   
EGJJ 220720Z 29013KT 9999 -RA FEW016CB SCT030 07/03 Q1007   
EGJJ 220650Z 30015KT 9999 FEW029 SCT031 06/02 Q1007 
EGJJ 220620Z 31010KT 280V340 9999 FEW029 SCT032 07/02 Q1007 
EGJJ 220550Z 31010KT 9999 FEW029 SCT040 06/02 Q1007 
EGJJ 220520Z AUTO 32008KT 280V340 9999 NCD 06/02 Q1007  
EGJJ 220450Z AUTO 32009KT 290V350 9999 FEW035/// 06/02 Q1008
EGJJ 220420Z AUTO 31011KT 9999 NCD 06/03 Q1008  
EGJJ 220350Z AUTO 31011KT 9999 FEW026/// 06/04 Q1008 RERA   
EGJJ 220320Z AUTO 31008KT 9999 FEW013/// SCT017/// BKN048/// 06/05 Q1008 RERA   
EGJJ 220250Z AUTO 28011KT 9999 -RA FEW019/// SCT025/// BKN029/// 06/05 Q1009
EGJJ 220220Z AUTO 26022G36KT 230V300 3000 RA FEW005/// SCT006/// BKN008/// 06/05 Q1009  
EGJJ 220150Z AUTO 22019G29KT 4200 1700 +RA SCT006/// BKN008/// BKN010/// 06/05 Q1009
EGJJ 220120Z AUTO 21018KT 9000 1500 RA BKN011/// OVC013/// 07/06 Q1010  
EGJJ 220050Z AUTO 20018KT 9999 1500 RA SCT008/// BKN009/// BKN011/// 07/05 Q1010 RESHRA 
EGJJ 220020Z AUTO 20019KT 180V240 9999 1600 -RA FEW010/// SCT019/// BKN029/// 07/05 Q1011 RESHRA
EGJJ 212350Z AUTO 21020KT 9999 1300 SCT010/// BKN012/// BKN016/// 07/05 Q1012 RESHRA
EGJJ 212320Z AUTO 21019KT 9999 1400 SCT013/// SCT038/// BKN043/// 07/05 Q1012 RESHRA
EGJJ 212250Z AUTO 21017KT 9999 1400 FEW012/// BKN023/// BKN030/// 07/05 Q1013 RESHRA
EGJJ 212220Z AUTO 21017KT 9999 1400 -SHRA FEW014/// SCT028/// BKN040/// 07/05 Q1014 RESHRA  
EGJJ 212150Z AUTO 21015KT 9999 1400 FEW014/// SCT017/// BKN032/// 07/05 Q1015 RERA  
EGJJ 212120Z AUTO 22015KT 9999 1400 FEW013/// OVC028/// 07/05 Q1016 RERA
EGJJ 212050Z AUTO 22015KT 9999 1200 R26/1200 BR SCT014/// SCT018/// BKN033/// 07/05 Q1016   
EGJJ 212020Z 22013KT 9999 R26/1400 SCT014 07/04 Q1017   
EGJJ 211950Z 22012KT 9999 FEW018 SCT020 06/04 Q1017 
EGJJ 211920Z 22011KT 9999 FEW016 SCT018 07/04 Q1018 
EGJJ 211850Z 22011KT 9999 FEW018 SCT021 07/04 Q1018 
EGJJ 211820Z 22010KT 9999 SCT014 SCT025 BKN040 06/04 Q1019  
EGJJ 211750Z 18008KT 9999 SCT014 BKN025 06/04 Q1019 
EGJJ 211720Z 18008KT 9999 -SHRA SCT014 BKN025 05/03 Q1020   
EGJJ 211650Z 17005KT 140V210 9999 FEW020 SCT040 05/02 Q1020 
EGJJ 211620Z 18005KT 9999 FEW020 SCT040 05/02 Q1021 
EGJJ 211550Z 17005KT 9999 FEW022 05/02 Q1021
EGJJ 211520Z 18006KT 9999 FEW020 SCT038 05/02 Q1021 
EGJJ 211450Z 17006KT 150V210 9999 FEW022 SCT038 06/02 Q1022 
EGJJ 211420Z 18006KT 150V220 9999 FEW027 SCT038 06/02 Q1022 
EGJJ 211350Z 17005KT 140V210 9999 FEW027 SCT037 06/02 Q1022 
EGJJ 211320Z 14003KT 080V200 9999 SCT037 08/02 Q1023
EGJJ 211250Z 13005KT 100V180 9999 SCT037 06/02 Q1023